• Join FlightAware (Why Join?)
  • Login
  • US Flag 
09:36PM EDT


 

Airport Tracker/Info


-or-


 

Live Flight TrackerFlight Track Log ✈ SWA311 ✈ 21-Apr-2013 ✈ KPIT - KBWI

Flight Track Log - Related Links

Times and Time Zones

All times are in EDT time to prevent confusion due to time zone crossing. See the SWA311 flight status page for this flight to view local times or setup timezone preferences in your user account.

Time Position Orientation Groundspeed Altitude Reporting Facility
EDT Latitude Longitude Course Direction KTS MPH feet Rate Location/Type
06:32PM 40.4164 -80.1331 164° South 249 287 6,900  Level Cleveland Center
06:33PM 40.3497 -80.1092 165° South 275 316 10,700 3,240 Climbing Cleveland Center
06:34PM 40.2642 -80.0797 165° South 289 333 13,400 3,120 Climbing Cleveland Center
06:35PM 40.1703 -80.0506 167° South 328 377 17,000 3,120 Climbing Cleveland Center
06:36PM 40.2637 -79.5839 166° South  Level Estimated
06:36PM 40.0719 -80.0189 166° South 353 406 19,700  Level Cleveland Center
06:37PM 40.2253 -79.4762 163° South  Level Estimated
06:37PM 39.9092 -79.9708 167° South 373 429 23,000  Level Washington Center
06:38PM 40.1869 -79.3686 164° South  Level Estimated
06:38PM 39.8128 -79.9300 162° South 373 429 23,000  Level Washington Center
06:39PM 39.7800 -79.7928 107° East 337 388 23,000  Level Washington Center
06:40PM 39.7558 -79.6483 102° East 373 429 23,000  Level Washington Center
06:41PM 39.7253 -79.4983 103° East 412 474 23,000  Level Washington Center
06:42PM 39.7326 -79.5201 103° East  Level Estimated
06:42PM 39.6969 -79.3483 104° East 423 487 23,000  Level Washington Center
06:43PM 39.6642 -79.1931 105° East 433 498 23,000  Level Washington Center
06:44PM 39.6353 -79.0406 104° East 433 498 23,000  Level Washington Center
06:45PM 39.5983 -78.8692 106° East 442 509 23,000  Level Washington Center
06:46PM 39.5650 -78.7142 106° East 442 509 23,000 -660 Level Washington Center
06:47PM 39.5333 -78.5622 105° East 442 509 21,700 -1,920 Descending Washington Center
06:48PM 39.5036 -78.4131 104° East 442 509 19,200 -2,280 Descending Washington Center
06:49PM 39.4756 -78.2747 105° East 425 489 17,200 -2,100 Descending Washington Center
06:50PM 39.4472 -78.1367 105° East 407 468 15,000 -1,200 Descending Washington Center
06:51PM 39.4308 -78.0150 100° East 393 452 14,900 -120 Descending Washington Center
06:52PM 39.4336 -77.8808 88° East 377 434 14,800 -600 Descending Washington Center
06:53PM 39.4381 -77.7439 88° East 372 428 13,800 -1,020 Descending Washington Center
06:54PM 39.4406 -77.6125 89° East 367 422 12,800 -1,140 Descending Washington Center
06:55PM 39.4425 -77.4861 89° East 362 417 11,600 -900 Descending Washington Center
06:56PM 39.4442 -77.3706 89° East 340 391 11,000 -420 Descending Washington Center
06:57PM 39.4500 -77.3167 82° East 300 345 11,000 -240 Level Potomac TRACON
06:58PM 39.4667 -77.2000 79° East 299 344 10,700 -840 Descending Potomac TRACON
06:59PM 39.4833 -77.1000 78° East 290 334 9,300 -1,440 Descending Potomac TRACON
07:00PM 39.4667 -77.0000 102° East 281 323 7,900 -1,440 Descending Potomac TRACON
07:01PM 39.4333 -76.9167 117° Southeast 279 321 6,600 -1,560 Descending Potomac TRACON
07:02PM 39.3667 -76.9000 169° South 267 307 4,800 -1,380 Descending Potomac TRACON
07:03PM 39.3000 -76.9000 180° South 255 293 3,900 -1,020 Descending Potomac TRACON
07:04PM 39.2333 -76.8833 169° South 244 281 2,800 -720 Descending Potomac TRACON
07:05PM 39.2000 -76.8167 123° Southeast 182 209 2,500 -540 Descending Potomac TRACON
07:06PM 39.1833 -76.7667 113° Southeast 143 165 1,800 -900 Descending Potomac TRACON
07:07PM 39.1833 -76.7167 90° East 134 154 700 -1,140 Descending Potomac TRACON
07:09PM 39.1667 -76.6667 150° Southeast  Level FlightAware Approximate
07:16PM 39.1754 -76.6683 150° Southeast  Level Estimated
07:17PM 39.1754 -76.6683 150° Southeast  Level Estimated
07:18PM 39.1754 -76.6683 150° Southeast  Level Estimated